sensor_id;sensor_type;location;lat;lon;timestamp;P1;durP1;ratioP1;P2;durP2;ratioP2
21645;SDS011;10984;45.712;4.800;2023-05-07T00:02:05;4.38;;;2.20;;
21645;SDS011;10984;45.712;4.800;2023-05-07T00:04:32;4.93;;;2.58;;
21645;SDS011;10984;45.712;4.800;2023-05-07T00:07:01;3.60;;;2.30;;
21645;SDS011;10984;45.712;4.800;2023-05-07T00:09:27;3.88;;;2.05;;
21645;SDS011;10984;45.712;4.800;2023-05-07T00:11:53;3.40;;;2.03;;
21645;SDS011;10984;45.712;4.800;2023-05-07T00:14:18;4.03;;;2.00;;
21645;SDS011;10984;45.712;4.800;2023-05-07T00:16:44;4.90;;;1.98;;
21645;SDS011;10984;45.712;4.800;2023-05-07T00:19:10;3.90;;;2.00;;
21645;SDS011;10984;45.712;4.800;2023-05-07T00:21:35;4.55;;;2.13;;
21645;SDS011;10984;45.712;4.800;2023-05-07T00:24:01;6.22;;;2.00;;
21645;SDS011;10984;45.712;4.800;2023-05-07T00:26:27;5.82;;;2.38;;
21645;SDS011;10984;45.712;4.800;2023-05-07T00:28:52;3.80;;;1.90;;
21645;SDS011;10984;45.712;4.800;2023-05-07T00:31:18;5.05;;;1.77;;
21645;SDS011;10984;45.712;4.800;2023-05-07T00:33:44;4.10;;;1.42;;
21645;SDS011;10984;45.712;4.800;2023-05-07T00:36:09;2.78;;;1.70;;
21645;SDS011;10984;45.712;4.800;2023-05-07T00:38:35;3.40;;;2.10;;
21645;SDS011;10984;45.712;4.800;2023-05-07T00:41:01;3.60;;;1.70;;
21645;SDS011;10984;45.712;4.800;2023-05-07T00:43:27;3.42;;;1.75;;
21645;SDS011;10984;45.712;4.800;2023-05-07T00:45:53;3.53;;;1.80;;
21645;SDS011;10984;45.712;4.800;2023-05-07T00:48:19;3.50;;;1.80;;
21645;SDS011;10984;45.712;4.800;2023-05-07T00:50:45;4.43;;;1.77;;
21645;SDS011;10984;45.712;4.800;2023-05-07T00:53:12;3.83;;;1.55;;
21645;SDS011;10984;45.712;4.800;2023-05-07T00:55:38;3.47;;;1.80;;
21645;SDS011;10984;45.712;4.800;2023-05-07T00:58:04;4.72;;;1.80;;
21645;SDS011;10984;45.712;4.800;2023-05-07T01:00:30;2.42;;;1.33;;
21645;SDS011;10984;45.712;4.800;2023-05-07T01:02:56;6.25;;;2.08;;
21645;SDS011;10984;45.712;4.800;2023-05-07T01:05:23;2.75;;;1.40;;
21645;SDS011;10984;45.712;4.800;2023-05-07T01:07:50;4.95;;;1.83;;
21645;SDS011;10984;45.712;4.800;2023-05-07T01:10:18;3.42;;;1.60;;
21645;SDS011;10984;45.712;4.800;2023-05-07T01:12:44;3.85;;;1.83;;
21645;SDS011;10984;45.712;4.800;2023-05-07T01:15:12;4.10;;;1.60;;
21645;SDS011;10984;45.712;4.800;2023-05-07T01:17:39;2.95;;;1.70;;
21645;SDS011;10984;45.712;4.800;2023-05-07T01:20:06;3.83;;;2.13;;
21645;SDS011;10984;45.712;4.800;2023-05-07T01:22:33;4.72;;;2.55;;
21645;SDS011;10984;45.712;4.800;2023-05-07T01:25:01;3.92;;;2.00;;
21645;SDS011;10984;45.712;4.800;2023-05-07T01:27:28;3.85;;;2.10;;
21645;SDS011;10984;45.712;4.800;2023-05-07T01:29:53;3.53;;;1.95;;
21645;SDS011;10984;45.712;4.800;2023-05-07T01:32:21;3.90;;;2.33;;
21645;SDS011;10984;45.712;4.800;2023-05-07T01:34:54;3.38;;;1.83;;
21645;SDS011;10984;45.712;4.800;2023-05-07T01:37:20;4.28;;;1.85;;
21645;SDS011;10984;45.712;4.800;2023-05-07T01:39:47;3.80;;;1.88;;
21645;SDS011;10984;45.712;4.800;2023-05-07T01:42:13;3.97;;;1.90;;
21645;SDS011;10984;45.712;4.800;2023-05-07T01:44:39;3.72;;;1.70;;
21645;SDS011;10984;45.712;4.800;2023-05-07T01:47:05;3.83;;;2.05;;
21645;SDS011;10984;45.712;4.800;2023-05-07T01:49:31;2.90;;;1.65;;
21645;SDS011;10984;45.712;4.800;2023-05-07T01:51:57;5.22;;;1.92;;
21645;SDS011;10984;45.712;4.800;2023-05-07T01:57:08;3.85;;;1.58;;
21645;SDS011;10984;45.712;4.800;2023-05-07T01:59:34;3.70;;;2.10;;
21645;SDS011;10984;45.712;4.800;2023-05-07T02:01:59;4.20;;;2.00;;
21645;SDS011;10984;45.712;4.800;2023-05-07T02:04:25;2.95;;;1.67;;
21645;SDS011;10984;45.712;4.800;2023-05-07T02:06:51;3.90;;;2.03;;
21645;SDS011;10984;45.712;4.800;2023-05-07T02:09:17;3.65;;;1.98;;
21645;SDS011;10984;45.712;4.800;2023-05-07T02:11:43;2.97;;;1.67;;
21645;SDS011;10984;45.712;4.800;2023-05-07T02:14:09;3.03;;;1.70;;
21645;SDS011;10984;45.712;4.800;2023-05-07T02:16:35;2.90;;;1.73;;
21645;SDS011;10984;45.712;4.800;2023-05-07T02:19:01;3.38;;;1.77;;
21645;SDS011;10984;45.712;4.800;2023-05-07T02:21:27;3.42;;;2.05;;
21645;SDS011;10984;45.712;4.800;2023-05-07T02:23:53;3.72;;;1.98;;
21645;SDS011;10984;45.712;4.800;2023-05-07T02:26:19;3.85;;;2.20;;
21645;SDS011;10984;45.712;4.800;2023-05-07T02:28:44;3.58;;;1.88;;
21645;SDS011;10984;45.712;4.800;2023-05-07T02:31:10;4.68;;;1.60;;
21645;SDS011;10984;45.712;4.800;2023-05-07T02:33:36;3.17;;;1.70;;
21645;SDS011;10984;45.712;4.800;2023-05-07T02:38:46;3.22;;;2.00;;
21645;SDS011;10984;45.712;4.800;2023-05-07T02:41:11;3.50;;;1.77;;
21645;SDS011;10984;45.712;4.800;2023-05-07T02:43:37;3.67;;;1.92;;
21645;SDS011;10984;45.712;4.800;2023-05-07T02:46:06;3.78;;;1.92;;
21645;SDS011;10984;45.712;4.800;2023-05-07T02:48:33;7.93;;;2.03;;
21645;SDS011;10984;45.712;4.800;2023-05-07T02:50:58;6.22;;;2.83;;
21645;SDS011;10984;45.712;4.800;2023-05-07T02:53:25;4.07;;;1.73;;
21645;SDS011;10984;45.712;4.800;2023-05-07T02:58:35;4.75;;;2.10;;
21645;SDS011;10984;45.712;4.800;2023-05-07T03:01:01;4.05;;;2.03;;
21645;SDS011;10984;45.712;4.800;2023-05-07T03:03:27;3.88;;;2.38;;
21645;SDS011;10984;45.712;4.800;2023-05-07T03:05:52;4.32;;;2.10;;
21645;SDS011;10984;45.712;4.800;2023-05-07T03:08:18;3.88;;;2.08;;
21645;SDS011;10984;45.712;4.800;2023-05-07T03:10:44;2.88;;;1.90;;
21645;SDS011;10984;45.712;4.800;2023-05-07T03:13:09;5.75;;;2.13;;
21645;SDS011;10984;45.712;4.800;2023-05-07T03:15:35;3.85;;;2.25;;
21645;SDS011;10984;45.712;4.800;2023-05-07T03:18:01;3.17;;;1.90;;
21645;SDS011;10984;45.712;4.800;2023-05-07T03:20:27;5.13;;;1.88;;
21645;SDS011;10984;45.712;4.800;2023-05-07T03:22:52;4.07;;;2.00;;
21645;SDS011;10984;45.712;4.800;2023-05-07T03:25:18;3.42;;;1.90;;
21645;SDS011;10984;45.712;4.800;2023-05-07T03:27:44;3.70;;;2.10;;
21645;SDS011;10984;45.712;4.800;2023-05-07T03:30:09;4.40;;;2.05;;
21645;SDS011;10984;45.712;4.800;2023-05-07T03:32:36;3.03;;;1.95;;
21645;SDS011;10984;45.712;4.800;2023-05-07T03:35:01;5.90;;;1.55;;
21645;SDS011;10984;45.712;4.800;2023-05-07T03:37:27;3.35;;;1.55;;
21645;SDS011;10984;45.712;4.800;2023-05-07T03:39:53;3.65;;;1.67;;
21645;SDS011;10984;45.712;4.800;2023-05-07T03:42:18;2.80;;;1.58;;
21645;SDS011;10984;45.712;4.800;2023-05-07T03:44:44;2.92;;;1.67;;
21645;SDS011;10984;45.712;4.800;2023-05-07T03:47:10;4.97;;;1.55;;
21645;SDS011;10984;45.712;4.800;2023-05-07T03:49:36;4.38;;;1.40;;
21645;SDS011;10984;45.712;4.800;2023-05-07T03:52:02;3.88;;;1.85;;
21645;SDS011;10984;45.712;4.800;2023-05-07T03:54:27;2.70;;;1.33;;
21645;SDS011;10984;45.712;4.800;2023-05-07T03:56:53;2.72;;;1.38;;
21645;SDS011;10984;45.712;4.800;2023-05-07T03:59:19;4.57;;;1.17;;
21645;SDS011;10984;45.712;4.800;2023-05-07T04:01:44;2.78;;;1.27;;
21645;SDS011;10984;45.712;4.800;2023-05-07T04:04:10;2.55;;;1.10;;
21645;SDS011;10984;45.712;4.800;2023-05-07T04:06:35;4.28;;;1.20;;
21645;SDS011;10984;45.712;4.800;2023-05-07T04:09:01;2.28;;;1.13;;
21645;SDS011;10984;45.712;4.800;2023-05-07T04:11:27;2.33;;;1.20;;
21645;SDS011;10984;45.712;4.800;2023-05-07T04:13:52;4.18;;;1.13;;
21645;SDS011;10984;45.712;4.800;2023-05-07T04:16:18;2.25;;;1.20;;
21645;SDS011;10984;45.712;4.800;2023-05-07T04:18:44;2.20;;;1.23;;
21645;SDS011;10984;45.712;4.800;2023-05-07T04:23:54;3.17;;;1.17;;
21645;SDS011;10984;45.712;4.800;2023-05-07T04:26:19;2.35;;;1.10;;
21645;SDS011;10984;45.712;4.800;2023-05-07T04:28:46;3.72;;;1.15;;
21645;SDS011;10984;45.712;4.800;2023-05-07T04:31:11;2.75;;;1.30;;
21645;SDS011;10984;45.712;4.800;2023-05-07T04:33:37;2.88;;;1.30;;
21645;SDS011;10984;45.712;4.800;2023-05-07T04:36:03;6.75;;;1.77;;
21645;SDS011;10984;45.712;4.800;2023-05-07T04:38:30;2.70;;;1.30;;
21645;SDS011;10984;45.712;4.800;2023-05-07T04:40:56;2.60;;;1.30;;
21645;SDS011;10984;45.712;4.800;2023-05-07T04:43:22;3.83;;;1.60;;
21645;SDS011;10984;45.712;4.800;2023-05-07T04:48:33;2.17;;;1.05;;
21645;SDS011;10984;45.712;4.800;2023-05-07T04:50:58;2.45;;;1.15;;
21645;SDS011;10984;45.712;4.800;2023-05-07T04:53:24;2.70;;;1.35;;
21645;SDS011;10984;45.712;4.800;2023-05-07T04:55:54;3.35;;;1.75;;
21645;SDS011;10984;45.712;4.800;2023-05-07T04:58:23;4.07;;;1.27;;
21645;SDS011;10984;45.712;4.800;2023-05-07T05:00:49;3.20;;;1.20;;
21645;SDS011;10984;45.712;4.800;2023-05-07T05:03:15;5.45;;;1.40;;
21645;SDS011;10984;45.712;4.800;2023-05-07T05:05:40;2.08;;;1.10;;
21645;SDS011;10984;45.712;4.800;2023-05-07T05:08:06;3.33;;;1.48;;
21645;SDS011;10984;45.712;4.800;2023-05-07T05:10:32;2.38;;;1.02;;
21645;SDS011;10984;45.712;4.800;2023-05-07T05:12:57;3.25;;;1.40;;
21645;SDS011;10984;45.712;4.800;2023-05-07T05:15:23;4.40;;;1.50;;
21645;SDS011;10984;45.712;4.800;2023-05-07T05:17:49;4.45;;;1.48;;
21645;SDS011;10984;45.712;4.800;2023-05-07T05:20:14;2.95;;;1.23;;
21645;SDS011;10984;45.712;4.800;2023-05-07T05:22:41;3.53;;;1.48;;
21645;SDS011;10984;45.712;4.800;2023-05-07T05:25:07;3.20;;;1.60;;
21645;SDS011;10984;45.712;4.800;2023-05-07T05:27:32;2.53;;;1.23;;
21645;SDS011;10984;45.712;4.800;2023-05-07T05:29:59;3.30;;;1.40;;
21645;SDS011;10984;45.712;4.800;2023-05-07T05:32:24;4.13;;;1.45;;
21645;SDS011;10984;45.712;4.800;2023-05-07T05:34:50;3.10;;;1.48;;
21645;SDS011;10984;45.712;4.800;2023-05-07T05:37:16;1.98;;;1.20;;
21645;SDS011;10984;45.712;4.800;2023-05-07T05:39:41;2.25;;;1.15;;
21645;SDS011;10984;45.712;4.800;2023-05-07T05:42:07;3.05;;;1.25;;
21645;SDS011;10984;45.712;4.800;2023-05-07T05:44:33;3.88;;;1.20;;
21645;SDS011;10984;45.712;4.800;2023-05-07T05:46:58;5.80;;;2.03;;
21645;SDS011;10984;45.712;4.800;2023-05-07T05:49:24;3.83;;;2.22;;
21645;SDS011;10984;45.712;4.800;2023-05-07T05:51:50;3.35;;;1.55;;
21645;SDS011;10984;45.712;4.800;2023-05-07T05:54:16;2.58;;;1.58;;
21645;SDS011;10984;45.712;4.800;2023-05-07T05:56:41;2.70;;;1.35;;
21645;SDS011;10984;45.712;4.800;2023-05-07T05:59:07;2.30;;;1.35;;
21645;SDS011;10984;45.712;4.800;2023-05-07T06:01:33;3.38;;;1.60;;
21645;SDS011;10984;45.712;4.800;2023-05-07T06:03:59;2.55;;;1.40;;
21645;SDS011;10984;45.712;4.800;2023-05-07T06:06:24;4.63;;;1.42;;
21645;SDS011;10984;45.712;4.800;2023-05-07T06:08:50;3.92;;;1.23;;
21645;SDS011;10984;45.712;4.800;2023-05-07T06:11:16;2.47;;;1.15;;
21645;SDS011;10984;45.712;4.800;2023-05-07T06:13:42;5.45;;;1.85;;
21645;SDS011;10984;45.712;4.800;2023-05-07T06:16:07;2.30;;;1.25;;
21645;SDS011;10984;45.712;4.800;2023-05-07T06:18:33;4.95;;;1.23;;
21645;SDS011;10984;45.712;4.800;2023-05-07T06:21:01;2.75;;;1.23;;
21645;SDS011;10984;45.712;4.800;2023-05-07T06:23:26;2.08;;;1.15;;
21645;SDS011;10984;45.712;4.800;2023-05-07T06:25:52;3.78;;;1.30;;
21645;SDS011;10984;45.712;4.800;2023-05-07T06:28:18;2.28;;;1.17;;
21645;SDS011;10984;45.712;4.800;2023-05-07T06:30:43;3.05;;;1.50;;
21645;SDS011;10984;45.712;4.800;2023-05-07T06:33:10;2.92;;;1.88;;
21645;SDS011;10984;45.712;4.800;2023-05-07T06:35:35;3.85;;;1.27;;
21645;SDS011;10984;45.712;4.800;2023-05-07T06:38:01;2.58;;;1.42;;
21645;SDS011;10984;45.712;4.800;2023-05-07T06:40:27;4.65;;;1.23;;
21645;SDS011;10984;45.712;4.800;2023-05-07T06:42:52;2.40;;;1.20;;
21645;SDS011;10984;45.712;4.800;2023-05-07T06:45:19;3.35;;;1.52;;
21645;SDS011;10984;45.712;4.800;2023-05-07T06:47:45;2.83;;;1.30;;
21645;SDS011;10984;45.712;4.800;2023-05-07T06:50:10;2.28;;;1.20;;
21645;SDS011;10984;45.712;4.800;2023-05-07T06:52:36;2.75;;;1.23;;
21645;SDS011;10984;45.712;4.800;2023-05-07T06:55:02;2.80;;;1.35;;
21645;SDS011;10984;45.712;4.800;2023-05-07T06:57:28;2.00;;;1.20;;
21645;SDS011;10984;45.712;4.800;2023-05-07T06:59:53;2.40;;;1.30;;
21645;SDS011;10984;45.712;4.800;2023-05-07T07:02:19;4.75;;;1.77;;
21645;SDS011;10984;45.712;4.800;2023-05-07T07:04:44;3.00;;;1.70;;
21645;SDS011;10984;45.712;4.800;2023-05-07T07:07:10;2.65;;;1.55;;
21645;SDS011;10984;45.712;4.800;2023-05-07T07:09:36;4.63;;;1.75;;
21645;SDS011;10984;45.712;4.800;2023-05-07T07:12:03;3.33;;;1.42;;
21645;SDS011;10984;45.712;4.800;2023-05-07T07:14:28;3.95;;;1.00;;
21645;SDS011;10984;45.712;4.800;2023-05-07T07:16:54;4.00;;;1.45;;
21645;SDS011;10984;45.712;4.800;2023-05-07T07:19:20;2.67;;;1.27;;
21645;SDS011;10984;45.712;4.800;2023-05-07T07:21:45;3.58;;;1.60;;
21645;SDS011;10984;45.712;4.800;2023-05-07T07:24:13;2.75;;;1.40;;
21645;SDS011;10984;45.712;4.800;2023-05-07T07:26:44;2.42;;;1.30;;
21645;SDS011;10984;45.712;4.800;2023-05-07T07:29:10;2.65;;;1.33;;
21645;SDS011;10984;45.712;4.800;2023-05-07T07:31:35;3.38;;;1.55;;
21645;SDS011;10984;45.712;4.800;2023-05-07T07:34:01;2.47;;;1.30;;
21645;SDS011;10984;45.712;4.800;2023-05-07T07:36:26;3.50;;;1.30;;
21645;SDS011;10984;45.712;4.800;2023-05-07T07:38:53;2.97;;;1.90;;
21645;SDS011;10984;45.712;4.800;2023-05-07T07:41:18;2.95;;;1.50;;
21645;SDS011;10984;45.712;4.800;2023-05-07T07:43:44;3.63;;;1.45;;
21645;SDS011;10984;45.712;4.800;2023-05-07T07:46:11;2.17;;;1.27;;
21645;SDS011;10984;45.712;4.800;2023-05-07T07:48:37;3.97;;;2.13;;
21645;SDS011;10984;45.712;4.800;2023-05-07T07:51:03;2.58;;;1.27;;
21645;SDS011;10984;45.712;4.800;2023-05-07T07:53:29;2.38;;;1.40;;
21645;SDS011;10984;45.712;4.800;2023-05-07T07:55:55;2.53;;;1.50;;
21645;SDS011;10984;45.712;4.800;2023-05-07T07:58:21;3.95;;;1.50;;
21645;SDS011;10984;45.712;4.800;2023-05-07T08:00:47;2.67;;;1.20;;
21645;SDS011;10984;45.712;4.800;2023-05-07T08:03:12;3.92;;;1.35;;
21645;SDS011;10984;45.712;4.800;2023-05-07T08:05:39;3.53;;;1.20;;
21645;SDS011;10984;45.712;4.800;2023-05-07T08:08:05;4.65;;;1.52;;
21645;SDS011;10984;45.712;4.800;2023-05-07T08:10:31;2.55;;;1.38;;
21645;SDS011;10984;45.712;4.800;2023-05-07T08:12:59;2.35;;;1.42;;
21645;SDS011;10984;45.712;4.800;2023-05-07T08:15:25;5.28;;;2.08;;
21645;SDS011;10984;45.712;4.800;2023-05-07T08:17:51;5.90;;;2.00;;
21645;SDS011;10984;45.712;4.800;2023-05-07T08:20:17;6.18;;;1.83;;
21645;SDS011;10984;45.712;4.800;2023-05-07T08:22:42;3.45;;;1.52;;
21645;SDS011;10984;45.712;4.800;2023-05-07T08:25:08;4.10;;;1.70;;
21645;SDS011;10984;45.712;4.800;2023-05-07T08:27:34;5.13;;;1.80;;
21645;SDS011;10984;45.712;4.800;2023-05-07T08:30:00;4.45;;;1.80;;
21645;SDS011;10984;45.712;4.800;2023-05-07T08:32:26;2.30;;;1.20;;
21645;SDS011;10984;45.712;4.800;2023-05-07T08:34:52;2.58;;;1.42;;
21645;SDS011;10984;45.712;4.800;2023-05-07T08:37:18;2.08;;;1.30;;
21645;SDS011;10984;45.712;4.800;2023-05-07T08:39:43;2.92;;;1.52;;
21645;SDS011;10984;45.712;4.800;2023-05-07T08:42:09;2.90;;;1.60;;
21645;SDS011;10984;45.712;4.800;2023-05-07T08:44:37;2.15;;;1.23;;
21645;SDS011;10984;45.712;4.800;2023-05-07T08:47:06;2.40;;;1.33;;
21645;SDS011;10984;45.712;4.800;2023-05-07T08:49:32;1.90;;;1.00;;
21645;SDS011;10984;45.712;4.800;2023-05-07T08:51:59;1.70;;;0.75;;
21645;SDS011;10984;45.712;4.800;2023-05-07T08:54:25;2.30;;;0.90;;
21645;SDS011;10984;45.712;4.800;2023-05-07T08:56:52;3.85;;;1.15;;
21645;SDS011;10984;45.712;4.800;2023-05-07T08:59:18;3.15;;;0.77;;
21645;SDS011;10984;45.712;4.800;2023-05-07T09:01:43;1.35;;;0.70;;
21645;SDS011;10984;45.712;4.800;2023-05-07T09:04:09;2.17;;;0.80;;
21645;SDS011;10984;45.712;4.800;2023-05-07T09:06:35;1.73;;;0.70;;
21645;SDS011;10984;45.712;4.800;2023-05-07T09:09:02;2.33;;;1.00;;
21645;SDS011;10984;45.712;4.800;2023-05-07T09:11:30;0.70;;;0.47;;
21645;SDS011;10984;45.712;4.800;2023-05-07T09:13:56;3.30;;;1.10;;
21645;SDS011;10984;45.712;4.800;2023-05-07T09:16:24;2.00;;;0.63;;
21645;SDS011;10984;45.712;4.800;2023-05-07T09:18:51;1.95;;;1.00;;
21645;SDS011;10984;45.712;4.800;2023-05-07T09:21:18;1.50;;;0.90;;
21645;SDS011;10984;45.712;4.800;2023-05-07T09:23:47;2.08;;;0.82;;
21645;SDS011;10984;45.712;4.800;2023-05-07T09:26:32;2.03;;;0.70;;
21645;SDS011;10984;45.712;4.800;2023-05-07T09:28:58;1.42;;;0.60;;
21645;SDS011;10984;45.712;4.800;2023-05-07T09:31:24;1.83;;;0.90;;
21645;SDS011;10984;45.712;4.800;2023-05-07T09:33:52;2.75;;;0.80;;
21645;SDS011;10984;45.712;4.800;2023-05-07T09:36:18;2.15;;;1.00;;
21645;SDS011;10984;45.712;4.800;2023-05-07T09:38:44;1.65;;;0.70;;
21645;SDS011;10984;45.712;4.800;2023-05-07T09:41:11;1.90;;;0.90;;
21645;SDS011;10984;45.712;4.800;2023-05-07T09:43:38;1.98;;;1.00;;
21645;SDS011;10984;45.712;4.800;2023-05-07T09:48:50;1.92;;;0.98;;
21645;SDS011;10984;45.712;4.800;2023-05-07T09:51:22;2.10;;;0.70;;
21645;SDS011;10984;45.712;4.800;2023-05-07T09:53:53;1.52;;;0.73;;
21645;SDS011;10984;45.712;4.800;2023-05-07T09:56:21;1.33;;;0.80;;
21645;SDS011;10984;45.712;4.800;2023-05-07T09:58:48;3.45;;;0.70;;
21645;SDS011;10984;45.712;4.800;2023-05-07T10:01:14;1.83;;;0.80;;
21645;SDS011;10984;45.712;4.800;2023-05-07T10:03:42;2.40;;;1.40;;
21645;SDS011;10984;45.712;4.800;2023-05-07T10:06:09;2.28;;;0.90;;
21645;SDS011;10984;45.712;4.800;2023-05-07T10:08:36;1.98;;;0.90;;
21645;SDS011;10984;45.712;4.800;2023-05-07T10:11:05;3.10;;;1.20;;
21645;SDS011;10984;45.712;4.800;2023-05-07T10:13:31;1.20;;;0.70;;
21645;SDS011;10984;45.712;4.800;2023-05-07T10:16:00;1.88;;;0.80;;
21645;SDS011;10984;45.712;4.800;2023-05-07T10:18:28;1.80;;;0.77;;
21645;SDS011;10984;45.712;4.800;2023-05-07T10:20:59;3.70;;;0.98;;
21645;SDS011;10984;45.712;4.800;2023-05-07T10:23:38;1.30;;;0.68;;
21645;SDS011;10984;45.712;4.800;2023-05-07T10:26:05;2.10;;;0.90;;
21645;SDS011;10984;45.712;4.800;2023-05-07T10:28:34;1.77;;;0.80;;
21645;SDS011;10984;45.712;4.800;2023-05-07T10:34:07;2.28;;;1.05;;
21645;SDS011;10984;45.712;4.800;2023-05-07T10:36:37;2.38;;;1.00;;
21645;SDS011;10984;45.712;4.800;2023-05-07T10:39:04;2.60;;;0.90;;
21645;SDS011;10984;45.712;4.800;2023-05-07T10:41:31;2.40;;;1.00;;
21645;SDS011;10984;45.712;4.800;2023-05-07T10:43:56;2.28;;;0.90;;
21645;SDS011;10984;45.712;4.800;2023-05-07T10:58:22;2.05;;;1.08;;
21645;SDS011;10984;45.712;4.800;2023-05-07T11:01:04;2.67;;;0.93;;
21645;SDS011;10984;45.712;4.800;2023-05-07T11:03:29;2.22;;;0.90;;
21645;SDS011;10984;45.712;4.800;2023-05-07T11:14:08;2.03;;;1.08;;
21645;SDS011;10984;45.712;4.800;2023-05-07T11:16:34;1.77;;;1.00;;
21645;SDS011;10984;45.712;4.800;2023-05-07T11:19:03;2.05;;;1.00;;
21645;SDS011;10984;45.712;4.800;2023-05-07T11:24:13;2.08;;;1.15;;
21645;SDS011;10984;45.712;4.800;2023-05-07T11:29:25;2.10;;;0.88;;
21645;SDS011;10984;45.712;4.800;2023-05-07T11:31:53;2.30;;;1.10;;
21645;SDS011;10984;45.712;4.800;2023-05-07T11:37:04;2.72;;;0.68;;
21645;SDS011;10984;45.712;4.800;2023-05-07T11:39:30;1.92;;;0.70;;
21645;SDS011;10984;45.712;4.800;2023-05-07T11:45:02;1.65;;;0.80;;
21645;SDS011;10984;45.712;4.800;2023-05-07T11:50:13;1.48;;;0.70;;
21645;SDS011;10984;45.712;4.800;2023-05-07T11:52:38;2.15;;;0.80;;
21645;SDS011;10984;45.712;4.800;2023-05-07T11:55:04;1.77;;;0.77;;
21645;SDS011;10984;45.712;4.800;2023-05-07T11:57:30;2.30;;;1.20;;
21645;SDS011;10984;45.712;4.800;2023-05-07T11:59:58;1.88;;;0.90;;
21645;SDS011;10984;45.712;4.800;2023-05-07T12:02:24;1.80;;;1.00;;
21645;SDS011;10984;45.712;4.800;2023-05-07T12:04:51;3.80;;;0.98;;
21645;SDS011;10984;45.712;4.800;2023-05-07T12:07:17;2.47;;;0.80;;
21645;SDS011;10984;45.712;4.800;2023-05-07T12:09:43;2.22;;;0.85;;
21645;SDS011;10984;45.712;4.800;2023-05-07T12:12:10;1.92;;;0.95;;
21645;SDS011;10984;45.712;4.800;2023-05-07T12:17:20;2.13;;;0.80;;
21645;SDS011;10984;45.712;4.800;2023-05-07T12:19:46;1.77;;;0.85;;
21645;SDS011;10984;45.712;4.800;2023-05-07T12:22:12;1.40;;;0.90;;
21645;SDS011;10984;45.712;4.800;2023-05-07T12:27:23;1.63;;;0.90;;
21645;SDS011;10984;45.712;4.800;2023-05-07T12:29:49;2.72;;;1.35;;
21645;SDS011;10984;45.712;4.800;2023-05-07T12:32:16;2.58;;;1.05;;
21645;SDS011;10984;45.712;4.800;2023-05-07T12:34:43;2.85;;;1.23;;
21645;SDS011;10984;45.712;4.800;2023-05-07T12:37:09;2.30;;;1.00;;
21645;SDS011;10984;45.712;4.800;2023-05-07T12:39:35;1.65;;;1.00;;
21645;SDS011;10984;45.712;4.800;2023-05-07T12:42:01;2.25;;;0.93;;
21645;SDS011;10984;45.712;4.800;2023-05-07T12:47:11;2.20;;;1.02;;
21645;SDS011;10984;45.712;4.800;2023-05-07T12:49:38;2.50;;;1.25;;
21645;SDS011;10984;45.712;4.800;2023-05-07T12:52:05;3.30;;;1.45;;
21645;SDS011;10984;45.712;4.800;2023-05-07T12:54:31;3.50;;;1.10;;
21645;SDS011;10984;45.712;4.800;2023-05-07T12:59:44;1.67;;;0.85;;
21645;SDS011;10984;45.712;4.800;2023-05-07T13:02:10;1.15;;;0.57;;
21645;SDS011;10984;45.712;4.800;2023-05-07T13:04:36;0.30;;;0.20;;
21645;SDS011;10984;45.712;4.800;2023-05-07T13:07:01;0.75;;;0.47;;
21645;SDS011;10984;45.712;4.800;2023-05-07T13:09:27;0.40;;;0.10;;
21645;SDS011;10984;45.712;4.800;2023-05-07T13:12:12;0.68;;;0.13;;
21645;SDS011;10984;45.712;4.800;2023-05-07T13:14:37;0.35;;;0.10;;
21645;SDS011;10984;45.712;4.800;2023-05-07T13:17:03;1.67;;;0.30;;
21645;SDS011;10984;45.712;4.800;2023-05-07T13:19:29;0.32;;;0.20;;
21645;SDS011;10984;45.712;4.800;2023-05-07T13:21:55;0.80;;;0.20;;
21645;SDS011;10984;45.712;4.800;2023-05-07T13:24:20;0.68;;;0.30;;
21645;SDS011;10984;45.712;4.800;2023-05-07T13:26:46;0.20;;;0.10;;
21645;SDS011;10984;45.712;4.800;2023-05-07T13:29:11;0.10;;;0.10;;
21645;SDS011;10984;45.712;4.800;2023-05-07T13:31:37;0.45;;;0.20;;
21645;SDS011;10984;45.712;4.800;2023-05-07T13:34:07;0.10;;;0.10;;
21645;SDS011;10984;45.712;4.800;2023-05-07T13:36:32;0.20;;;0.08;;
21645;SDS011;10984;45.712;4.800;2023-05-07T13:39:02;0.57;;;0.20;;
21645;SDS011;10984;45.712;4.800;2023-05-07T13:41:28;0.40;;;0.30;;
21645;SDS011;10984;45.712;4.800;2023-05-07T13:43:54;1.65;;;0.40;;
21645;SDS011;10984;45.712;4.800;2023-05-07T13:46:20;0.68;;;0.30;;
21645;SDS011;10984;45.712;4.800;2023-05-07T13:48:46;0.93;;;0.20;;
21645;SDS011;10984;45.712;4.800;2023-05-07T13:51:12;1.88;;;0.38;;
21645;SDS011;10984;45.712;4.800;2023-05-07T13:53:38;0.63;;;0.20;;
21645;SDS011;10984;45.712;4.800;2023-05-07T13:56:03;0.88;;;0.52;;
21645;SDS011;10984;45.712;4.800;2023-05-07T13:58:30;0.45;;;0.10;;
21645;SDS011;10984;45.712;4.800;2023-05-07T14:00:55;1.10;;;0.32;;
21645;SDS011;10984;45.712;4.800;2023-05-07T14:03:21;0.85;;;0.20;;
21645;SDS011;10984;45.712;4.800;2023-05-07T14:05:47;0.93;;;0.40;;
21645;SDS011;10984;45.712;4.800;2023-05-07T14:08:12;0.43;;;0.10;;
21645;SDS011;10984;45.712;4.800;2023-05-07T14:10:39;1.95;;;0.10;;
21645;SDS011;10984;45.712;4.800;2023-05-07T14:13:05;0.30;;;0.10;;
21645;SDS011;10984;45.712;4.800;2023-05-07T14:15:31;0.22;;;0.10;;
21645;SDS011;10984;45.712;4.800;2023-05-07T14:18:15;0.28;;;0.10;;
21645;SDS011;10984;45.712;4.800;2023-05-07T14:20:41;0.30;;;0.10;;
21645;SDS011;10984;45.712;4.800;2023-05-07T14:23:08;0.17;;;0.10;;
21645;SDS011;10984;45.712;4.800;2023-05-07T14:25:34;0.08;;;0.03;;
21645;SDS011;10984;45.712;4.800;2023-05-07T14:28:00;0.10;;;0.10;;
21645;SDS011;10984;45.712;4.800;2023-05-07T14:30:26;0.50;;;0.20;;
21645;SDS011;10984;45.712;4.800;2023-05-07T14:32:51;0.20;;;0.10;;
21645;SDS011;10984;45.712;4.800;2023-05-07T14:35:17;0.30;;;0.10;;
21645;SDS011;10984;45.712;4.800;2023-05-07T14:37:43;0.45;;;0.10;;
21645;SDS011;10984;45.712;4.800;2023-05-07T14:40:09;0.57;;;0.10;;
21645;SDS011;10984;45.712;4.800;2023-05-07T14:42:35;0.32;;;0.10;;
21645;SDS011;10984;45.712;4.800;2023-05-07T14:45:00;0.52;;;0.10;;
21645;SDS011;10984;45.712;4.800;2023-05-07T14:47:27;0.00;;;0.00;;
21645;SDS011;10984;45.712;4.800;2023-05-07T14:49:52;1.17;;;0.32;;
21645;SDS011;10984;45.712;4.800;2023-05-07T14:52:19;0.05;;;0.05;;
21645;SDS011;10984;45.712;4.800;2023-05-07T14:54:45;0.73;;;0.10;;
21645;SDS011;10984;45.712;4.800;2023-05-07T14:57:10;0.10;;;0.10;;
21645;SDS011;10984;45.712;4.800;2023-05-07T14:59:41;0.20;;;0.10;;
21645;SDS011;10984;45.712;4.800;2023-05-07T15:02:07;0.30;;;0.10;;
21645;SDS011;10984;45.712;4.800;2023-05-07T15:04:34;0.38;;;0.10;;
21645;SDS011;10984;45.712;4.800;2023-05-07T15:07:00;0.85;;;0.20;;
21645;SDS011;10984;45.712;4.800;2023-05-07T15:09:25;0.50;;;0.30;;
21645;SDS011;10984;45.712;4.800;2023-05-07T15:11:51;0.10;;;0.00;;
21645;SDS011;10984;45.712;4.800;2023-05-07T15:14:17;0.22;;;0.20;;
21645;SDS011;10984;45.712;4.800;2023-05-07T15:16:43;0.20;;;0.10;;
21645;SDS011;10984;45.712;4.800;2023-05-07T15:19:10;0.30;;;0.10;;
21645;SDS011;10984;45.712;4.800;2023-05-07T15:21:36;1.48;;;0.10;;
21645;SDS011;10984;45.712;4.800;2023-05-07T15:24:01;0.47;;;0.20;;
21645;SDS011;10984;45.712;4.800;2023-05-07T15:26:27;0.20;;;0.15;;
21645;SDS011;10984;45.712;4.800;2023-05-07T15:28:54;0.32;;;0.15;;
21645;SDS011;10984;45.712;4.800;2023-05-07T15:31:22;0.52;;;0.20;;
21645;SDS011;10984;45.712;4.800;2023-05-07T15:33:48;0.30;;;0.15;;
21645;SDS011;10984;45.712;4.800;2023-05-07T15:36:15;1.40;;;0.30;;
21645;SDS011;10984;45.712;4.800;2023-05-07T15:38:41;0.20;;;0.10;;
21645;SDS011;10984;45.712;4.800;2023-05-07T15:41:06;0.10;;;0.10;;
21645;SDS011;10984;45.712;4.800;2023-05-07T15:43:32;0.25;;;0.13;;
21645;SDS011;10984;45.712;4.800;2023-05-07T15:45:57;0.03;;;0.03;;
21645;SDS011;10984;45.712;4.800;2023-05-07T15:48:25;0.38;;;0.10;;